DLH9ED LJLJ-EDDF
Flight info
| Callsign | DLH9ED |
|---|---|
| Flight time | N/A |
| Altitude | 34000 |
| Route | LUPIX2E LUPIX DCT EBITI DCT GIMIX DCT RASTA DCT SIMBA DCT AKINI T161 DEBHI DEBHI1D |
| Aircraft | B738/M-SDE2E3FGHIRWXY/LB1 |
Departure
| Time | 2026-04-26 10:34 |
|---|---|
| Airport | Ljubljana Jože Pučnik Airport (LJLJ) |
Arrival
| Time | N/A |
|---|---|
| Airport | Frankfurt Main Airport (EDDF) |
| Time | Latitude | Longitude | Altitude | Speed | Heading |
|---|---|---|---|---|---|
| 2026-04-26 09:59 | 46.22975 | 14.45513 | 1267 ft | 0 kts | 37° |
| 2026-04-26 10:22 | 46.22965 | 14.45502 | 1264 ft | 4 kts | 32° |
| 2026-04-26 10:22 | 46.22941 | 14.45486 | 1269 ft | 4 kts | 9° |
| 2026-04-26 10:22 | 46.22917 | 14.45488 | 1267 ft | 4 kts | 324° |
| 2026-04-26 10:23 | 46.22910 | 14.45497 | 1267 ft | 2 kts | 307° |
| 2026-04-26 10:26 | 46.22917 | 14.45482 | 1259 ft | 4 kts | 307° |
| 2026-04-26 10:27 | 46.22934 | 14.45451 | 1263 ft | 4 kts | 307° |
| 2026-04-26 10:27 | 46.22950 | 14.45418 | 1259 ft | 4 kts | 306° |
| 2026-04-26 10:27 | 46.22977 | 14.45365 | 1261 ft | 10 kts | 306° |
| 2026-04-26 10:27 | 46.23023 | 14.45272 | 1263 ft | 12 kts | 306° |
| 2026-04-26 10:28 | 46.23072 | 14.45177 | 1264 ft | 12 kts | 307° |
| 2026-04-26 10:28 | 46.23121 | 14.45084 | 1274 ft | 11 kts | 307° |
| 2026-04-26 10:28 | 46.23145 | 14.45038 | 1267 ft | 0 kts | 307° |
| 2026-04-26 10:28 | 46.23157 | 14.45014 | 1268 ft | 5 kts | 307° |
| 2026-04-26 10:29 | 46.23162 | 14.44963 | 1268 ft | 6 kts | 243° |
| 2026-04-26 10:29 | 46.23134 | 14.44926 | 1275 ft | 5 kts | 217° |
| 2026-04-26 10:29 | 46.23114 | 14.44905 | 1274 ft | 5 kts | 216° |
| 2026-04-26 10:29 | 46.23088 | 14.44866 | 1272 ft | 5 kts | 245° |
| 2026-04-26 10:30 | 46.23092 | 14.44815 | 1270 ft | 5 kts | 299° |
| 2026-04-26 10:30 | 46.23119 | 14.44762 | 1271 ft | 8 kts | 307° |
| 2026-04-26 10:30 | 46.23161 | 14.44679 | 1274 ft | 13 kts | 306° |
| 2026-04-26 10:30 | 46.23220 | 14.44561 | 1276 ft | 16 kts | 306° |
| 2026-04-26 10:31 | 46.23297 | 14.44411 | 1280 ft | 21 kts | 306° |
| 2026-04-26 10:31 | 46.23366 | 14.44277 | 1282 ft | 8 kts | 306° |
| 2026-04-26 10:31 | 46.23397 | 14.44210 | 1285 ft | 8 kts | 296° |
| 2026-04-26 10:31 | 46.23397 | 14.44134 | 1287 ft | 8 kts | 250° |
| 2026-04-26 10:32 | 46.23359 | 14.44086 | 1286 ft | 7 kts | 202° |
| 2026-04-26 10:32 | 46.23309 | 14.44078 | 1291 ft | 7 kts | 173° |
| 2026-04-26 10:32 | 46.23261 | 14.44087 | 1287 ft | 7 kts | 173° |
| 2026-04-26 10:32 | 46.23215 | 14.44110 | 1286 ft | 7 kts | 132° |
| 2026-04-26 10:33 | 46.23198 | 14.44144 | 1285 ft | 0 kts | 125° |
| 2026-04-26 10:33 | 46.23193 | 14.44156 | 1283 ft | 3 kts | 125° |
| 2026-04-26 10:33 | 46.23111 | 14.44319 | 1277 ft | 52 kts | 126° |
| 2026-04-26 10:33 | 46.22753 | 14.45023 | 1266 ft | 120 kts | 125° |
| 2026-04-26 10:34 | 46.22177 | 14.46237 | 1317 ft | 168 kts | 122° |
| 2026-04-26 10:34 | 46.21522 | 14.47881 | 1581 ft | 205 kts | 118° |
| 2026-04-26 10:34 | 46.20803 | 14.49693 | 2357 ft | 205 kts | 119° |
| 2026-04-26 10:34 | 46.20171 | 14.51420 | 3447 ft | 195 kts | 120° |
| 2026-04-26 10:35 | 46.19398 | 14.53230 | 3652 ft | 230 kts | 119° |
| 2026-04-26 10:35 | 46.18662 | 14.55475 | 3808 ft | 257 kts | 111° |
| 2026-04-26 10:35 | 46.17842 | 14.57778 | 4589 ft | 261 kts | 131° |
| 2026-04-26 10:35 | 46.16453 | 14.59492 | 5267 ft | 268 kts | 140° |
| 2026-04-26 10:36 | 46.15049 | 14.61276 | 5827 ft | 276 kts | 134° |
| 2026-04-26 10:36 | 46.13689 | 14.63295 | 6445 ft | 282 kts | 130° |
| 2026-04-26 10:36 | 46.12401 | 14.65430 | 7127 ft | 284 kts | 128° |
| 2026-04-26 10:36 | 46.11151 | 14.67670 | 7754 ft | 288 kts | 127° |
| 2026-04-26 10:37 | 46.09926 | 14.69981 | 8397 ft | 289 kts | 126° |
| 2026-04-26 10:37 | 46.08736 | 14.72274 | 9023 ft | 292 kts | 126° |
| 2026-04-26 10:37 | 46.07492 | 14.74678 | 9591 ft | 298 kts | 126° |
| 2026-04-26 10:37 | 46.06254 | 14.77054 | 10271 ft | 300 kts | 127° |
| 2026-04-26 10:38 | 46.04962 | 14.79512 | 10543 ft | 316 kts | 127° |
| 2026-04-26 10:38 | 46.03598 | 14.82130 | 10740 ft | 332 kts | 126° |
| 2026-04-26 10:38 | 46.03181 | 14.85234 | 11052 ft | 332 kts | 69° |
| 2026-04-26 10:38 | 46.04473 | 14.87844 | 11499 ft | 328 kts | 31° |
| 2026-04-26 10:39 | 46.06454 | 14.89064 | 12834 ft | 294 kts | 13° |
| 2026-04-26 10:39 | 46.08477 | 14.89556 | 13497 ft | 299 kts | 4° |
| 2026-04-26 10:39 | 46.10586 | 14.89893 | 13930 ft | 309 kts | 5° |
| 2026-04-26 10:39 | 46.12746 | 14.90300 | 14419 ft | 315 kts | 6° |
| 2026-04-26 10:40 | 46.14923 | 14.90719 | 15030 ft | 318 kts | 10° |
| 2026-04-26 10:40 | 46.17003 | 14.92043 | 15158 ft | 342 kts | 37° |
| 2026-04-26 10:40 | 46.18537 | 14.94781 | 15321 ft | 362 kts | 59° |
| 2026-04-26 10:40 | 46.20005 | 14.97782 | 15402 ft | 374 kts | 39° |
| 2026-04-26 10:41 | 46.22238 | 14.99649 | 15519 ft | 381 kts | 15° |
| 2026-04-26 10:41 | 46.24882 | 14.99979 | 15701 ft | 387 kts | 351° |
| 2026-04-26 10:41 | 46.27409 | 14.98652 | 16063 ft | 390 kts | 327° |
| 2026-04-26 10:41 | 46.29351 | 14.95919 | 16514 ft | 393 kts | 306° |
| 2026-04-26 10:42 | 46.30967 | 14.92725 | 16915 ft | 394 kts | 313° |
| 2026-04-26 10:42 | 46.32935 | 14.90019 | 17281 ft | 396 kts | 320° |
| 2026-04-26 10:42 | 46.35044 | 14.87421 | 17648 ft | 399 kts | 321° |
| 2026-04-26 10:42 | 46.37175 | 14.84812 | 18017 ft | 402 kts | 321° |
| 2026-04-26 10:43 | 46.39312 | 14.82174 | 18392 ft | 405 kts | 320° |
| 2026-04-26 10:43 | 46.41455 | 14.79502 | 18723 ft | 407 kts | 320° |
| 2026-04-26 10:43 | 46.43598 | 14.76803 | 19142 ft | 406 kts | 320° |
| 2026-04-26 10:43 | 46.45724 | 14.74109 | 19575 ft | 406 kts | 320° |
| 2026-04-26 10:44 | 46.47854 | 14.71398 | 19853 ft | 410 kts | 320° |
| 2026-04-26 10:44 | 46.50006 | 14.68651 | 20105 ft | 413 kts | 320° |
| 2026-04-26 10:44 | 46.52163 | 14.65892 | 20395 ft | 415 kts | 320° |
| 2026-04-26 10:44 | 46.54336 | 14.63108 | 20659 ft | 417 kts | 320° |
| 2026-04-26 10:45 | 46.56518 | 14.60310 | 20937 ft | 419 kts | 320° |
| 2026-04-26 10:45 | 46.58708 | 14.57500 | 21227 ft | 421 kts | 320° |
| 2026-04-26 10:45 | 46.60879 | 14.54710 | 21496 ft | 423 kts | 320° |
| 2026-04-26 10:45 | 46.63089 | 14.51866 | 21763 ft | 424 kts | 319° |
| 2026-04-26 10:46 | 46.65312 | 14.49003 | 22012 ft | 426 kts | 319° |
| 2026-04-26 10:46 | 46.67533 | 14.46140 | 22268 ft | 428 kts | 320° |
| 2026-04-26 10:46 | 46.69759 | 14.43267 | 22707 ft | 424 kts | 320° |
| 2026-04-26 10:46 | 46.71967 | 14.40412 | 22955 ft | 426 kts | 320° |
| 2026-04-26 10:47 | 46.74172 | 14.37560 | 23126 ft | 429 kts | 320° |
| 2026-04-26 10:47 | 46.76403 | 14.34671 | 23304 ft | 431 kts | 319° |
| 2026-04-26 10:47 | 46.78654 | 14.31753 | 23512 ft | 433 kts | 319° |
| 2026-04-26 10:47 | 46.80906 | 14.28829 | 23734 ft | 434 kts | 319° |
| 2026-04-26 10:48 | 46.83166 | 14.25892 | 23918 ft | 435 kts | 319° |
| 2026-04-26 10:48 | 46.85434 | 14.22942 | 24086 ft | 437 kts | 319° |
| 2026-04-26 10:48 | 46.87708 | 14.19978 | 24246 ft | 438 kts | 319° |
| 2026-04-26 10:48 | 46.89985 | 14.17008 | 24415 ft | 439 kts | 319° |
| 2026-04-26 10:49 | 46.92263 | 14.14033 | 24569 ft | 440 kts | 319° |
| 2026-04-26 10:49 | 46.94545 | 14.11049 | 24854 ft | 438 kts | 319° |
| 2026-04-26 10:49 | 46.96824 | 14.08066 | 25036 ft | 439 kts | 319° |
| 2026-04-26 10:49 | 46.99107 | 14.05074 | 25149 ft | 441 kts | 319° |
| 2026-04-26 10:50 | 47.01364 | 14.02112 | 25327 ft | 441 kts | 319° |
| 2026-04-26 10:50 | 47.02877 | 14.00126 | 25463 ft | 441 kts | 319° |
| 2026-04-26 10:50 | 47.05941 | 13.96097 | 25673 ft | 441 kts | 319° |
| 2026-04-26 10:50 | 47.08229 | 13.93084 | 25755 ft | 444 kts | 319° |
| 2026-04-26 10:51 | 47.10512 | 13.90075 | 25821 ft | 447 kts | 319° |
| 2026-04-26 10:51 | 47.15120 | 13.83988 | 26203 ft | 446 kts | 319° |
| 2026-04-26 10:51 | 47.17430 | 13.80932 | 26333 ft | 447 kts | 318° |
| 2026-04-26 10:52 | 47.19750 | 13.77858 | 26357 ft | 450 kts | 318° |
| 2026-04-26 10:52 | 47.22079 | 13.74769 | 26410 ft | 453 kts | 318° |
| 2026-04-26 10:52 | 47.24424 | 13.71654 | 26474 ft | 454 kts | 318° |